Time;durP1;ratioP1;P1;durP2;ratioP2;P2;SDS_P1;SDS_P2;PMS_P1;PMS_P2;Temp;Humidity;BMP_temperature;BMP_pressure;BME280_temperature;BME280_humidity;BME280_pressure;Samples;Min_cycle;Max_cycle;Signal;HPM_P1;HPM_P2
2022/08/30 00:01:01;;;;;;;13.85;12.55;;;;;;;14.84;90.27832;95598.9;;;;
2022/08/30 00:02:03;;;;;;;13.85;12.55;;;;;;;14.84;90.27832;95598.9;;;;
2022/08/30 00:03:05;;;;;;;13.85;12.55;;;;;;;14.84;90.27832;95598.9;;;;
2022/08/30 00:04:08;;;;;;;13.45;12;;;;;;;14.66;90.30859;95589.15;;;;
2022/08/30 00:05:09;;;;;;;13.45;12;;;;;;;14.66;90.30859;95589.15;;;;
2022/08/30 00:06:09;;;;;;;13.45;12;;;;;;;14.66;90.30859;95589.15;;;;
2022/08/30 00:07:11;;;;;;;13.45;12;;;;;;;14.66;90.30859;95589.15;;;;
2022/08/30 00:08:12;;;;;;;13.45;12;;;;;;;14.66;90.30859;95589.15;;;;
2022/08/30 00:09:13;;;;;;;13.45;12;;;;;;;14.66;90.30859;95589.15;;;;
2022/08/30 00:10:13;;;;;;;13.45;12;;;;;;;14.66;90.30859;95589.15;;;;
2022/08/30 00:11:15;;;;;;;13.45;12;;;;;;;14.66;90.30859;95589.15;;;;
2022/08/30 00:12:19;;;;;;;13.45;12;;;;;;;14.66;90.30859;95589.15;;;;
2022/08/30 00:13:20;;;;;;;13.45;12;;;;;;;14.66;90.30859;95589.15;;;;
2022/08/30 00:14:22;;;;;;;13.65;12.35;;;;;;;14.57;90.55078;95585.61;;;;
2022/08/30 00:15:22;;;;;;;13.65;12.35;;;;;;;14.57;90.55078;95585.61;;;;
2022/08/30 00:16:24;;;;;;;13.65;12.35;;;;;;;14.57;90.55078;95585.61;;;;
2022/08/30 00:17:25;;;;;;;13.65;12.35;;;;;;;14.57;90.55078;95585.61;;;;
2022/08/30 00:18:25;;;;;;;13.65;12.35;;;;;;;14.57;90.55078;95585.61;;;;
2022/08/30 00:19:26;;;;;;;13.65;12.35;;;;;;;14.57;90.55078;95585.61;;;;
2022/08/30 00:20:26;;;;;;;13.65;12.35;;;;;;;14.57;90.55078;95585.61;;;;
2022/08/30 00:21:30;;;;;;;13.65;12.35;;;;;;;14.57;90.55078;95585.61;;;;
2022/08/30 00:22:31;;;;;;;13.65;12.35;;;;;;;14.57;90.55078;95585.61;;;;
2022/08/30 00:23:32;;;;;;;13.65;12.35;;;;;;;14.57;90.55078;95585.61;;;;
2022/08/30 00:24:32;;;;;;;13.65;12.35;;;;;;;14.57;90.55078;95585.61;;;;
2022/08/30 00:25:33;;;;;;;14.4;12.9;;;;;;;14.42;90.66895;95583.92;;;;
2022/08/30 00:26:34;;;;;;;14.4;12.9;;;;;;;14.42;90.66895;95583.92;;;;
2022/08/30 00:27:34;;;;;;;14.4;12.9;;;;;;;14.42;90.66895;95583.92;;;;
2022/08/30 00:28:35;;;;;;;14.4;12.9;;;;;;;14.42;90.66895;95583.92;;;;
2022/08/30 00:29:35;;;;;;;14.4;12.9;;;;;;;14.42;90.66895;95583.92;;;;
2022/08/30 00:30:36;;;;;;;14.4;12.9;;;;;;;14.42;90.66895;95583.92;;;;
2022/08/30 00:31:37;;;;;;;14.4;12.9;;;;;;;14.42;90.66895;95583.92;;;;
2022/08/30 00:32:38;;;;;;;14.4;12.9;;;;;;;14.42;90.66895;95583.92;;;;
2022/08/30 00:33:39;;;;;;;14.4;12.9;;;;;;;14.42;90.66895;95583.92;;;;
2022/08/30 00:34:39;;;;;;;14.4;12.9;;;;;;;14.42;90.66895;95583.92;;;;
2022/08/30 00:35:40;;;;;;;14.8;13.25;;;;;;;14.38;90.9082;95582.87;;;;
2022/08/30 00:36:41;;;;;;;14.8;13.25;;;;;;;14.38;90.9082;95582.87;;;;
2022/08/30 00:37:43;;;;;;;14.8;13.25;;;;;;;14.38;90.9082;95582.87;;;;
2022/08/30 00:38:43;;;;;;;14.8;13.25;;;;;;;14.38;90.9082;95582.87;;;;
2022/08/30 00:39:44;;;;;;;14.8;13.25;;;;;;;14.38;90.9082;95582.87;;;;
2022/08/30 00:40:45;;;;;;;14.8;13.25;;;;;;;14.38;90.9082;95582.87;;;;
2022/08/30 00:41:45;;;;;;;14.8;13.25;;;;;;;14.38;90.9082;95582.87;;;;
2022/08/30 00:42:46;;;;;;;14.8;13.25;;;;;;;14.38;90.9082;95582.87;;;;
2022/08/30 00:43:48;;;;;;;14.8;13.25;;;;;;;14.38;90.9082;95582.87;;;;
2022/08/30 00:44:48;;;;;;;14.8;13.25;;;;;;;14.38;90.9082;95582.87;;;;
2022/08/30 00:45:49;;;;;;;14.8;13.25;;;;;;;14.38;90.9082;95582.87;;;;
2022/08/30 00:46:51;;;;;;;14.1;12.7;;;;;;;14.25;90.94824;95580.27;;;;
2022/08/30 00:47:51;;;;;;;14.1;12.7;;;;;;;14.25;90.94824;95580.27;;;;
2022/08/30 00:48:52;;;;;;;14.1;12.7;;;;;;;14.25;90.94824;95580.27;;;;
2022/08/30 00:49:54;;;;;;;14.1;12.7;;;;;;;14.25;90.94824;95580.27;;;;
2022/08/30 00:50:56;;;;;;;14.1;12.7;;;;;;;14.25;90.94824;95580.27;;;;
2022/08/30 00:52:01;;;;;;;14.1;12.7;;;;;;;14.25;90.94824;95580.27;;;;
2022/08/30 00:53:03;;;;;;;14.1;12.7;;;;;;;14.25;90.94824;95580.27;;;;
2022/08/30 00:54:08;;;;;;;14.1;12.7;;;;;;;14.25;90.94824;95580.27;;;;
2022/08/30 00:55:12;;;;;;;14.1;12.7;;;;;;;14.25;90.94824;95580.27;;;;
2022/08/30 00:56:15;;;;;;;14.1;12.7;;;;;;;14.25;90.94824;95580.27;;;;
2022/08/30 00:57:17;;;;;;;14.65;13.2;;;;;;;14.19;91.12891;95580.75;;;;
2022/08/30 00:58:20;;;;;;;14.65;13.2;;;;;;;14.19;91.12891;95580.75;;;;
2022/08/30 00:59:27;;;;;;;14.65;13.2;;;;;;;14.19;91.12891;95580.75;;;;
2022/08/30 01:00:29;;;;;;;14.65;13.2;;;;;;;14.19;91.12891;95580.75;;;;
2022/08/30 01:01:31;;;;;;;14.65;13.2;;;;;;;14.19;91.12891;95580.75;;;;
2022/08/30 01:02:32;;;;;;;14.65;13.2;;;;;;;14.19;91.12891;95580.75;;;;
2022/08/30 01:03:33;;;;;;;14.65;13.2;;;;;;;14.19;91.12891;95580.75;;;;
2022/08/30 01:04:35;;;;;;;14.65;13.2;;;;;;;14.19;91.12891;95580.75;;;;
2022/08/30 01:05:38;;;;;;;14.65;13.2;;;;;;;14.19;91.12891;95580.75;;;;
2022/08/30 01:06:38;;;;;;;14.65;13.2;;;;;;;14.19;91.12891;95580.75;;;;
2022/08/30 01:07:40;;;;;;;14.2;12.8;;;;;;;14.09;91.22656;95571.71;;;;
2022/08/30 01:08:41;;;;;;;14.2;12.8;;;;;;;14.09;91.22656;95571.71;;;;
2022/08/30 01:09:42;;;;;;;14.2;12.8;;;;;;;14.09;91.22656;95571.71;;;;
2022/08/30 01:10:43;;;;;;;14.2;12.8;;;;;;;14.09;91.22656;95571.71;;;;
2022/08/30 01:11:44;;;;;;;14.2;12.8;;;;;;;14.09;91.22656;95571.71;;;;
2022/08/30 01:12:45;;;;;;;14.2;12.8;;;;;;;14.09;91.22656;95571.71;;;;
2022/08/30 01:13:46;;;;;;;14.2;12.8;;;;;;;14.09;91.22656;95571.71;;;;
2022/08/30 01:14:49;;;;;;;14.2;12.8;;;;;;;14.09;91.22656;95571.71;;;;
2022/08/30 01:15:49;;;;;;;14.2;12.8;;;;;;;14.09;91.22656;95571.71;;;;
2022/08/30 01:16:50;;;;;;;14.2;12.8;;;;;;;14.09;91.22656;95571.71;;;;
2022/08/30 01:17:51;;;;;;;14.2;12.8;;;;;;;14.09;91.22656;95571.71;;;;
2022/08/30 01:18:51;;;;;;;15.65;13.95;;;;;;;14.05;91.45605;95567.77;;;;
2022/08/30 01:19:56;;;;;;;15.65;13.95;;;;;;;14.05;91.45605;95567.77;;;;
2022/08/30 01:21:02;;;;;;;15.65;13.95;;;;;;;14.05;91.45605;95567.77;;;;
2022/08/30 01:22:13;;;;;;;15.65;13.95;;;;;;;14.05;91.45605;95567.77;;;;
2022/08/30 01:23:23;;;;;;;15.65;13.95;;;;;;;14.05;91.45605;95567.77;;;;
2022/08/30 01:24:25;;;;;;;15.65;13.95;;;;;;;14.05;91.45605;95567.77;;;;
2022/08/30 01:25:26;;;;;;;15.65;13.95;;;;;;;14.05;91.45605;95567.77;;;;
2022/08/30 01:26:29;;;;;;;15.65;13.95;;;;;;;14.05;91.45605;95567.77;;;;
2022/08/30 01:27:31;;;;;;;15.65;13.95;;;;;;;14.05;91.45605;95567.77;;;;
2022/08/30 01:28:36;;;;;;;15.65;13.95;;;;;;;14.05;91.45605;95567.77;;;;
2022/08/30 01:29:38;;;;;;;15.95;14.35;;;;;;;13.96;91.5332;95566.96;;;;
2022/08/30 01:30:41;;;;;;;15.95;14.35;;;;;;;13.96;91.5332;95566.96;;;;
2022/08/30 01:31:42;;;;;;;15.95;14.35;;;;;;;13.96;91.5332;95566.96;;;;
2022/08/30 01:32:42;;;;;;;15.95;14.35;;;;;;;13.96;91.5332;95566.96;;;;
2022/08/30 01:33:45;;;;;;;15.95;14.35;;;;;;;13.96;91.5332;95566.96;;;;
2022/08/30 01:34:47;;;;;;;15.95;14.35;;;;;;;13.96;91.5332;95566.96;;;;
2022/08/30 01:35:48;;;;;;;15.95;14.35;;;;;;;13.96;91.5332;95566.96;;;;
2022/08/30 01:36:51;;;;;;;15.95;14.35;;;;;;;13.96;91.5332;95566.96;;;;
2022/08/30 01:37:51;;;;;;;15.95;14.35;;;;;;;13.96;91.5332;95566.96;;;;
2022/08/30 01:38:52;;;;;;;15.95;14.35;;;;;;;13.96;91.5332;95566.96;;;;
2022/08/30 01:39:55;;;;;;;16.4;14.65;;;;;;;13.94;91.72363;95573.05;;;;
2022/08/30 01:40:55;;;;;;;16.4;14.65;;;;;;;13.94;91.72363;95573.05;;;;
2022/08/30 01:41:57;;;;;;;16.4;14.65;;;;;;;13.94;91.72363;95573.05;;;;
2022/08/30 01:42:58;;;;;;;16.4;14.65;;;;;;;13.94;91.72363;95573.05;;;;
2022/08/30 01:43:58;;;;;;;16.4;14.65;;;;;;;13.94;91.72363;95573.05;;;;
2022/08/30 01:45:01;;;;;;;16.4;14.65;;;;;;;13.94;91.72363;95573.05;;;;
2022/08/30 01:46:02;;;;;;;16.4;14.65;;;;;;;13.94;91.72363;95573.05;;;;
2022/08/30 01:47:04;;;;;;;16.4;14.65;;;;;;;13.94;91.72363;95573.05;;;;
2022/08/30 01:48:04;;;;;;;16.4;14.65;;;;;;;13.94;91.72363;95573.05;;;;
2022/08/30 01:49:05;;;;;;;16.4;14.65;;;;;;;13.94;91.72363;95573.05;;;;
2022/08/30 01:50:08;;;;;;;16.4;14.65;;;;;;;13.94;91.72363;95573.05;;;;
2022/08/30 01:51:09;;;;;;;16.2;14.6;;;;;;;13.88;91.82031;95576.98;;;;
2022/08/30 01:52:11;;;;;;;16.2;14.6;;;;;;;13.88;91.82031;95576.98;;;;
2022/08/30 01:53:14;;;;;;;16.2;14.6;;;;;;;13.88;91.82031;95576.98;;;;
2022/08/30 01:54:14;;;;;;;16.2;14.6;;;;;;;13.88;91.82031;95576.98;;;;
2022/08/30 01:55:15;;;;;;;16.2;14.6;;;;;;;13.88;91.82031;95576.98;;;;
2022/08/30 01:56:15;;;;;;;16.2;14.6;;;;;;;13.88;91.82031;95576.98;;;;
2022/08/30 01:57:17;;;;;;;16.2;14.6;;;;;;;13.88;91.82031;95576.98;;;;
2022/08/30 01:58:22;;;;;;;16.2;14.6;;;;;;;13.88;91.82031;95576.98;;;;
2022/08/30 01:59:23;;;;;;;16.2;14.6;;;;;;;13.88;91.82031;95576.98;;;;
2022/08/30 02:00:23;;;;;;;16.2;14.6;;;;;;;13.88;91.82031;95576.98;;;;
2022/08/30 02:01:24;;;;;;;15.7;13.95;;;;;;;13.89;92.00684;95572.77;;;;
2022/08/30 02:02:27;;;;;;;15.7;13.95;;;;;;;13.89;92.00684;95572.77;;;;
2022/08/30 02:03:31;;;;;;;15.7;13.95;;;;;;;13.89;92.00684;95572.77;;;;
2022/08/30 02:04:33;;;;;;;15.7;13.95;;;;;;;13.89;92.00684;95572.77;;;;
2022/08/30 02:05:33;;;;;;;15.7;13.95;;;;;;;13.89;92.00684;95572.77;;;;
2022/08/30 02:06:34;;;;;;;15.7;13.95;;;;;;;13.89;92.00684;95572.77;;;;
2022/08/30 02:07:37;;;;;;;15.7;13.95;;;;;;;13.89;92.00684;95572.77;;;;
2022/08/30 02:08:39;;;;;;;15.7;13.95;;;;;;;13.89;92.00684;95572.77;;;;
2022/08/30 02:09:40;;;;;;;15.7;13.95;;;;;;;13.89;92.00684;95572.77;;;;
2022/08/30 02:10:41;;;;;;;15.7;13.95;;;;;;;13.89;92.00684;95572.77;;;;
2022/08/30 02:11:43;;;;;;;15.7;13.95;;;;;;;13.89;92.00684;95572.77;;;;
2022/08/30 02:12:43;;;;;;;16.55;14.85;;;;;;;13.84;92.06055;95575.42;;;;
2022/08/30 02:13:44;;;;;;;16.55;14.85;;;;;;;13.84;92.06055;95575.42;;;;
2022/08/30 02:14:45;;;;;;;16.55;14.85;;;;;;;13.84;92.06055;95575.42;;;;
2022/08/30 02:15:46;;;;;;;16.55;14.85;;;;;;;13.84;92.06055;95575.42;;;;
2022/08/30 02:16:47;;;;;;;16.55;14.85;;;;;;;13.84;92.06055;95575.42;;;;
2022/08/30 02:17:47;;;;;;;16.55;14.85;;;;;;;13.84;92.06055;95575.42;;;;
2022/08/30 02:18:48;;;;;;;16.55;14.85;;;;;;;13.84;92.06055;95575.42;;;;
2022/08/30 02:19:49;;;;;;;16.55;14.85;;;;;;;13.84;92.06055;95575.42;;;;
2022/08/30 02:20:50;;;;;;;16.55;14.85;;;;;;;13.84;92.06055;95575.42;;;;
2022/08/30 02:21:50;;;;;;;16.55;14.85;;;;;;;13.84;92.06055;95575.42;;;;
2022/08/30 02:22:51;;;;;;;15.25;13.85;;;;;;;13.84;92.23242;95567.31;;;;
2022/08/30 02:23:52;;;;;;;15.25;13.85;;;;;;;13.84;92.23242;95567.31;;;;
2022/08/30 02:24:52;;;;;;;15.25;13.85;;;;;;;13.84;92.23242;95567.31;;;;
2022/08/30 02:25:53;;;;;;;15.25;13.85;;;;;;;13.84;92.23242;95567.31;;;;
2022/08/30 02:26:54;;;;;;;15.25;13.85;;;;;;;13.84;92.23242;95567.31;;;;
2022/08/30 02:27:55;;;;;;;15.25;13.85;;;;;;;13.84;92.23242;95567.31;;;;
2022/08/30 02:28:56;;;;;;;15.25;13.85;;;;;;;13.84;92.23242;95567.31;;;;
2022/08/30 02:29:56;;;;;;;15.25;13.85;;;;;;;13.84;92.23242;95567.31;;;;
2022/08/30 02:30:57;;;;;;;15.25;13.85;;;;;;;13.84;92.23242;95567.31;;;;
2022/08/30 02:31:58;;;;;;;15.25;13.85;;;;;;;13.84;92.23242;95567.31;;;;
2022/08/30 02:32:59;;;;;;;15.25;13.85;;;;;;;13.84;92.23242;95567.31;;;;
2022/08/30 02:33:59;;;;;;;15.25;13.85;;;;;;;13.84;92.23242;95567.31;;;;
2022/08/30 02:35:00;;;;;;;15.25;13.85;;;;;;;13.84;92.23242;95567.31;;;;
2022/08/30 02:36:00;;;;;;;15.25;13.85;;;;;;;13.84;92.23242;95567.31;;;;
2022/08/30 02:37:01;;;;;;;15.25;13.85;;;;;;;13.84;92.23242;95567.31;;;;
2022/08/30 02:38:02;;;;;;;15.25;13.85;;;;;;;13.84;92.23242;95567.31;;;;
2022/08/30 02:39:04;;;;;;;15.25;13.85;;;;;;;13.84;92.23242;95567.31;;;;
2022/08/30 02:40:05;;;;;;;15.25;13.85;;;;;;;13.84;92.23242;95567.31;;;;
2022/08/30 02:41:06;;;;;;;15.25;13.85;;;;;;;13.84;92.23242;95567.31;;;;
2022/08/30 02:42:07;;;;;;;15.25;13.85;;;;;;;13.84;92.23242;95567.31;;;;
2022/08/30 02:43:07;;;;;;;15.25;13.85;;;;;;;13.84;92.23242;95567.31;;;;
2022/08/30 02:44:08;;;;;;;15.25;13.85;;;;;;;13.84;92.23242;95567.31;;;;
2022/08/30 02:45:10;;;;;;;15.25;13.85;;;;;;;13.84;92.23242;95567.31;;;;
2022/08/30 02:46:11;;;;;;;15.25;13.85;;;;;;;13.84;92.23242;95567.31;;;;
2022/08/30 02:47:11;;;;;;;15.25;13.85;;;;;;;13.84;92.23242;95567.31;;;;
2022/08/30 02:48:12;;;;;;;15.25;13.85;;;;;;;13.84;92.23242;95567.31;;;;
2022/08/30 02:49:13;;;;;;;15.25;13.85;;;;;;;13.84;92.23242;95567.31;;;;
2022/08/30 02:50:14;;;;;;;15.25;13.85;;;;;;;13.84;92.23242;95567.31;;;;
2022/08/30 02:51:15;;;;;;;15.25;13.85;;;;;;;13.84;92.23242;95567.31;;;;
2022/08/30 02:52:15;;;;;;;15.25;13.85;;;;;;;13.84;92.23242;95567.31;;;;
2022/08/30 02:53:16;;;;;;;15.25;13.85;;;;;;;13.84;92.23242;95567.31;;;;
2022/08/30 02:54:18;;;;;;;15.25;13.85;;;;;;;13.84;92.23242;95567.31;;;;
2022/08/30 02:55:19;;;;;;;15.25;13.75;;;;;;;13.66;92.43066;95574.53;;;;
2022/08/30 02:56:20;;;;;;;15.25;13.75;;;;;;;13.66;92.43066;95574.53;;;;
2022/08/30 02:57:21;;;;;;;15.25;13.75;;;;;;;13.66;92.43066;95574.53;;;;
2022/08/30 02:58:22;;;;;;;15.25;13.75;;;;;;;13.66;92.43066;95574.53;;;;
2022/08/30 02:59:22;;;;;;;15.25;13.75;;;;;;;13.66;92.43066;95574.53;;;;
2022/08/30 03:00:23;;;;;;;15.25;13.75;;;;;;;13.66;92.43066;95574.53;;;;
2022/08/30 03:01:24;;;;;;;15.25;13.75;;;;;;;13.66;92.43066;95574.53;;;;
2022/08/30 03:02:24;;;;;;;15.25;13.75;;;;;;;13.66;92.43066;95574.53;;;;
2022/08/30 03:03:25;;;;;;;15.25;13.75;;;;;;;13.66;92.43066;95574.53;;;;
2022/08/30 03:04:26;;;;;;;15.25;13.75;;;;;;;13.66;92.43066;95574.53;;;;
2022/08/30 03:05:26;;;;;;;15.4;13.7;;;;;;;13.64;92.62305;95578.74;;;;
2022/08/30 03:06:27;;;;;;;15.4;13.7;;;;;;;13.64;92.62305;95578.74;;;;
2022/08/30 03:07:28;;;;;;;15.4;13.7;;;;;;;13.64;92.62305;95578.74;;;;
2022/08/30 03:08:28;;;;;;;15.4;13.7;;;;;;;13.64;92.62305;95578.74;;;;
2022/08/30 03:09:29;;;;;;;15.4;13.7;;;;;;;13.64;92.62305;95578.74;;;;
2022/08/30 03:10:30;;;;;;;15.4;13.7;;;;;;;13.64;92.62305;95578.74;;;;
2022/08/30 03:11:31;;;;;;;15.4;13.7;;;;;;;13.64;92.62305;95578.74;;;;
2022/08/30 03:12:32;;;;;;;15.4;13.7;;;;;;;13.64;92.62305;95578.74;;;;
2022/08/30 03:13:32;;;;;;;15.4;13.7;;;;;;;13.64;92.62305;95578.74;;;;
2022/08/30 03:14:35;;;;;;;15.4;13.7;;;;;;;13.64;92.62305;95578.74;;;;
2022/08/30 03:15:38;;;;;;;15.4;13.7;;;;;;;13.64;92.62305;95578.74;;;;
2022/08/30 03:16:39;;;;;;;14.8;13.25;;;;;;;13.57;92.66309;95581.98;;;;
2022/08/30 03:17:39;;;;;;;14.8;13.25;;;;;;;13.57;92.66309;95581.98;;;;
2022/08/30 03:18:42;;;;;;;14.8;13.25;;;;;;;13.57;92.66309;95581.98;;;;
2022/08/30 03:19:42;;;;;;;14.8;13.25;;;;;;;13.57;92.66309;95581.98;;;;
2022/08/30 03:20:43;;;;;;;14.8;13.25;;;;;;;13.57;92.66309;95581.98;;;;
2022/08/30 03:21:44;;;;;;;14.8;13.25;;;;;;;13.57;92.66309;95581.98;;;;
2022/08/30 03:22:45;;;;;;;14.8;13.25;;;;;;;13.57;92.66309;95581.98;;;;
2022/08/30 03:23:45;;;;;;;14.8;13.25;;;;;;;13.57;92.66309;95581.98;;;;
2022/08/30 03:24:46;;;;;;;14.8;13.25;;;;;;;13.57;92.66309;95581.98;;;;
2022/08/30 03:25:46;;;;;;;14.8;13.25;;;;;;;13.57;92.66309;95581.98;;;;
2022/08/30 03:26:47;;;;;;;14.6;13.15;;;;;;;13.57;92.85254;95583.44;;;;
2022/08/30 03:27:49;;;;;;;14.6;13.15;;;;;;;13.57;92.85254;95583.44;;;;
2022/08/30 03:28:50;;;;;;;14.6;13.15;;;;;;;13.57;92.85254;95583.44;;;;
2022/08/30 03:29:50;;;;;;;14.6;13.15;;;;;;;13.57;92.85254;95583.44;;;;
2022/08/30 03:30:51;;;;;;;14.6;13.15;;;;;;;13.57;92.85254;95583.44;;;;
2022/08/30 03:31:51;;;;;;;14.6;13.15;;;;;;;13.57;92.85254;95583.44;;;;
2022/08/30 03:32:52;;;;;;;14.6;13.15;;;;;;;13.57;92.85254;95583.44;;;;
2022/08/30 03:33:52;;;;;;;14.6;13.15;;;;;;;13.57;92.85254;95583.44;;;;
2022/08/30 03:34:53;;;;;;;14.6;13.15;;;;;;;13.57;92.85254;95583.44;;;;
2022/08/30 03:35:54;;;;;;;14.6;13.15;;;;;;;13.57;92.85254;95583.44;;;;
2022/08/30 03:36:54;;;;;;;14.6;13.15;;;;;;;13.57;92.85254;95583.44;;;;
2022/08/30 03:37:55;;;;;;;16.95;14.05;;;;;;;13.49;92.86035;95576.97;;;;
2022/08/30 03:38:56;;;;;;;16.95;14.05;;;;;;;13.49;92.86035;95576.97;;;;
2022/08/30 03:39:57;;;;;;;16.95;14.05;;;;;;;13.49;92.86035;95576.97;;;;
2022/08/30 03:40:58;;;;;;;16.95;14.05;;;;;;;13.49;92.86035;95576.97;;;;
2022/08/30 03:41:58;;;;;;;16.95;14.05;;;;;;;13.49;92.86035;95576.97;;;;
2022/08/30 03:42:59;;;;;;;16.95;14.05;;;;;;;13.49;92.86035;95576.97;;;;
2022/08/30 03:44:00;;;;;;;16.95;14.05;;;;;;;13.49;92.86035;95576.97;;;;
2022/08/30 03:45:02;;;;;;;16.95;14.05;;;;;;;13.49;92.86035;95576.97;;;;
2022/08/30 03:46:04;;;;;;;16.95;14.05;;;;;;;13.49;92.86035;95576.97;;;;
2022/08/30 03:47:06;;;;;;;16.95;14.05;;;;;;;13.49;92.86035;95576.97;;;;
2022/08/30 03:48:06;;;;;;;15.05;13.45;;;;;;;13.48;93.00879;95570.97;;;;
2022/08/30 03:49:07;;;;;;;15.05;13.45;;;;;;;13.48;93.00879;95570.97;;;;
2022/08/30 03:50:08;;;;;;;15.05;13.45;;;;;;;13.48;93.00879;95570.97;;;;
2022/08/30 03:51:11;;;;;;;15.05;13.45;;;;;;;13.48;93.00879;95570.97;;;;
2022/08/30 03:52:11;;;;;;;15.05;13.45;;;;;;;13.48;93.00879;95570.97;;;;
2022/08/30 03:53:12;;;;;;;15.05;13.45;;;;;;;13.48;93.00879;95570.97;;;;
2022/08/30 03:54:12;;;;;;;15.05;13.45;;;;;;;13.48;93.00879;95570.97;;;;
2022/08/30 03:55:13;;;;;;;15.05;13.45;;;;;;;13.48;93.00879;95570.97;;;;
2022/08/30 03:56:14;;;;;;;15.05;13.45;;;;;;;13.48;93.00879;95570.97;;;;
2022/08/30 03:57:14;;;;;;;15.05;13.45;;;;;;;13.48;93.00879;95570.97;;;;
2022/08/30 03:58:15;;;;;;;15.05;13.45;;;;;;;13.48;93.00879;95570.97;;;;
2022/08/30 03:59:16;;;;;;;15.05;13.45;;;;;;;13.48;93.00879;95570.97;;;;
2022/08/30 04:00:17;;;;;;;15.05;13.45;;;;;;;13.48;93.00879;95570.97;;;;
2022/08/30 04:01:17;;;;;;;15.05;13.45;;;;;;;13.48;93.00879;95570.97;;;;
2022/08/30 04:02:18;;;;;;;15.05;13.45;;;;;;;13.48;93.00879;95570.97;;;;
2022/08/30 04:03:24;;;;;;;15.05;13.45;;;;;;;13.48;93.00879;95570.97;;;;
2022/08/30 04:04:25;;;;;;;15.05;13.45;;;;;;;13.48;93.00879;95570.97;;;;
2022/08/30 04:05:26;;;;;;;15.05;13.45;;;;;;;13.48;93.00879;95570.97;;;;
2022/08/30 04:06:27;;;;;;;15.05;13.45;;;;;;;13.48;93.00879;95570.97;;;;
2022/08/30 04:07:27;;;;;;;15.05;13.45;;;;;;;13.48;93.00879;95570.97;;;;
2022/08/30 04:08:28;;;;;;;15.05;13.45;;;;;;;13.48;93.00879;95570.97;;;;
2022/08/30 04:09:28;;;;;;;14.4;12.95;;;;;;;13.33;93.13867;95576.23;;;;
2022/08/30 04:10:29;;;;;;;14.4;12.95;;;;;;;13.33;93.13867;95576.23;;;;
2022/08/30 04:11:30;;;;;;;14.4;12.95;;;;;;;13.33;93.13867;95576.23;;;;
2022/08/30 04:12:31;;;;;;;14.4;12.95;;;;;;;13.33;93.13867;95576.23;;;;
2022/08/30 04:13:32;;;;;;;14.4;12.95;;;;;;;13.33;93.13867;95576.23;;;;
2022/08/30 04:14:33;;;;;;;14.4;12.95;;;;;;;13.33;93.13867;95576.23;;;;
2022/08/30 04:15:34;;;;;;;14.4;12.95;;;;;;;13.33;93.13867;95576.23;;;;
2022/08/30 04:16:34;;;;;;;14.4;12.95;;;;;;;13.33;93.13867;95576.23;;;;
2022/08/30 04:17:35;;;;;;;14.4;12.95;;;;;;;13.33;93.13867;95576.23;;;;
2022/08/30 04:18:35;;;;;;;14.4;12.95;;;;;;;13.33;93.13867;95576.23;;;;
2022/08/30 04:19:36;;;;;;;14.4;12.95;;;;;;;13.33;93.13867;95576.23;;;;
2022/08/30 04:20:37;;;;;;;14.9;13.4;;;;;;;13.23;93.11719;95591.46;;;;
2022/08/30 04:21:38;;;;;;;14.9;13.4;;;;;;;13.23;93.11719;95591.46;;;;
2022/08/30 04:22:38;;;;;;;14.9;13.4;;;;;;;13.23;93.11719;95591.46;;;;
2022/08/30 04:23:39;;;;;;;14.9;13.4;;;;;;;13.23;93.11719;95591.46;;;;
2022/08/30 04:24:40;;;;;;;14.9;13.4;;;;;;;13.23;93.11719;95591.46;;;;
2022/08/30 04:25:41;;;;;;;14.9;13.4;;;;;;;13.23;93.11719;95591.46;;;;
2022/08/30 04:26:41;;;;;;;14.9;13.4;;;;;;;13.23;93.11719;95591.46;;;;
2022/08/30 04:27:42;;;;;;;14.9;13.4;;;;;;;13.23;93.11719;95591.46;;;;
2022/08/30 04:28:44;;;;;;;14.9;13.4;;;;;;;13.23;93.11719;95591.46;;;;
2022/08/30 04:29:44;;;;;;;14.9;13.4;;;;;;;13.23;93.11719;95591.46;;;;
2022/08/30 04:30:45;;;;;;;15.35;13.1;;;;;;;13.21;93.27539;95605.08;;;;
2022/08/30 04:31:46;;;;;;;15.35;13.1;;;;;;;13.21;93.27539;95605.08;;;;
2022/08/30 04:32:46;;;;;;;15.35;13.1;;;;;;;13.21;93.27539;95605.08;;;;
2022/08/30 04:33:47;;;;;;;15.35;13.1;;;;;;;13.21;93.27539;95605.08;;;;
2022/08/30 04:34:47;;;;;;;15.35;13.1;;;;;;;13.21;93.27539;95605.08;;;;
2022/08/30 04:35:48;;;;;;;15.35;13.1;;;;;;;13.21;93.27539;95605.08;;;;
2022/08/30 04:36:48;;;;;;;15.35;13.1;;;;;;;13.21;93.27539;95605.08;;;;
2022/08/30 04:37:49;;;;;;;15.35;13.1;;;;;;;13.21;93.27539;95605.08;;;;
2022/08/30 04:38:49;;;;;;;15.35;13.1;;;;;;;13.21;93.27539;95605.08;;;;
2022/08/30 04:39:50;;;;;;;15.35;13.1;;;;;;;13.21;93.27539;95605.08;;;;
2022/08/30 04:40:54;;;;;;;15.35;13.1;;;;;;;13.21;93.27539;95605.08;;;;
2022/08/30 04:41:54;;;;;;;14.3;12.8;;;;;;;13.15;93.28223;95611.66;;;;
2022/08/30 04:42:55;;;;;;;14.3;12.8;;;;;;;13.15;93.28223;95611.66;;;;
2022/08/30 04:43:56;;;;;;;14.3;12.8;;;;;;;13.15;93.28223;95611.66;;;;
2022/08/30 04:44:56;;;;;;;14.3;12.8;;;;;;;13.15;93.28223;95611.66;;;;
2022/08/30 04:45:57;;;;;;;14.3;12.8;;;;;;;13.15;93.28223;95611.66;;;;
2022/08/30 04:46:58;;;;;;;14.3;12.8;;;;;;;13.15;93.28223;95611.66;;;;
2022/08/30 04:47:58;;;;;;;14.3;12.8;;;;;;;13.15;93.28223;95611.66;;;;
2022/08/30 04:48:59;;;;;;;14.3;12.8;;;;;;;13.15;93.28223;95611.66;;;;
2022/08/30 04:50:00;;;;;;;14.3;12.8;;;;;;;13.15;93.28223;95611.66;;;;
2022/08/30 04:51:00;;;;;;;14.3;12.8;;;;;;;13.15;93.28223;95611.66;;;;
2022/08/30 04:52:05;;;;;;;15.6;12.7;;;;;;;13.19;93.44336;95619.49;;;;
2022/08/30 04:53:05;;;;;;;15.6;12.7;;;;;;;13.19;93.44336;95619.49;;;;
2022/08/30 04:54:06;;;;;;;15.6;12.7;;;;;;;13.19;93.44336;95619.49;;;;
2022/08/30 04:55:07;;;;;;;15.6;12.7;;;;;;;13.19;93.44336;95619.49;;;;
2022/08/30 04:56:09;;;;;;;15.6;12.7;;;;;;;13.19;93.44336;95619.49;;;;
2022/08/30 04:57:15;;;;;;;15.6;12.7;;;;;;;13.19;93.44336;95619.49;;;;
2022/08/30 04:58:16;;;;;;;15.6;12.7;;;;;;;13.19;93.44336;95619.49;;;;
2022/08/30 04:59:17;;;;;;;15.6;12.7;;;;;;;13.19;93.44336;95619.49;;;;
2022/08/30 05:00:19;;;;;;;15.6;12.7;;;;;;;13.19;93.44336;95619.49;;;;
2022/08/30 05:01:20;;;;;;;15.6;12.7;;;;;;;13.19;93.44336;95619.49;;;;
2022/08/30 05:02:23;;;;;;;15.6;12.7;;;;;;;13.19;93.44336;95619.49;;;;
2022/08/30 05:03:23;;;;;;;15.3;13.75;;;;;;;13.23;93.52637;95633.94;;;;
2022/08/30 05:04:24;;;;;;;15.3;13.75;;;;;;;13.23;93.52637;95633.94;;;;
2022/08/30 05:05:40;;;;;;;15.3;13.75;;;;;;;13.23;93.52637;95633.94;;;;
2022/08/30 05:06:46;;;;;;;15.3;13.75;;;;;;;13.23;93.52637;95633.94;;;;
2022/08/30 05:07:47;;;;;;;15.3;13.75;;;;;;;13.23;93.52637;95633.94;;;;
2022/08/30 05:08:47;;;;;;;15.3;13.75;;;;;;;13.23;93.52637;95633.94;;;;
2022/08/30 05:09:48;;;;;;;15.3;13.75;;;;;;;13.23;93.52637;95633.94;;;;
2022/08/30 05:10:48;;;;;;;15.3;13.75;;;;;;;13.23;93.52637;95633.94;;;;
2022/08/30 05:11:50;;;;;;;15.3;13.75;;;;;;;13.23;93.52637;95633.94;;;;
2022/08/30 05:12:51;;;;;;;15.3;13.75;;;;;;;13.23;93.52637;95633.94;;;;
2022/08/30 05:13:51;;;;;;;15.65;14.05;;;;;;;13.45;93.72266;95648.85;;;;
2022/08/30 05:14:52;;;;;;;15.65;14.05;;;;;;;13.45;93.72266;95648.85;;;;
2022/08/30 05:15:53;;;;;;;15.65;14.05;;;;;;;13.45;93.72266;95648.85;;;;
2022/08/30 05:16:54;;;;;;;15.65;14.05;;;;;;;13.45;93.72266;95648.85;;;;
2022/08/30 05:17:54;;;;;;;15.65;14.05;;;;;;;13.45;93.72266;95648.85;;;;
2022/08/30 05:18:55;;;;;;;15.65;14.05;;;;;;;13.45;93.72266;95648.85;;;;
2022/08/30 05:19:55;;;;;;;15.65;14.05;;;;;;;13.45;93.72266;95648.85;;;;
2022/08/30 05:20:55;;;;;;;15.65;14.05;;;;;;;13.45;93.72266;95648.85;;;;
2022/08/30 05:22:06;;;;;;;15.65;14.05;;;;;;;13.45;93.72266;95648.85;;;;
2022/08/30 05:23:07;;;;;;;15.65;14.05;;;;;;;13.45;93.72266;95648.85;;;;
2022/08/30 05:24:09;;;;;;;14.1;12.6;;;;;;;13.63;93.54688;95646.7;;;;
2022/08/30 05:25:09;;;;;;;14.1;12.6;;;;;;;13.63;93.54688;95646.7;;;;
2022/08/30 05:26:10;;;;;;;14.1;12.6;;;;;;;13.63;93.54688;95646.7;;;;
2022/08/30 05:27:14;;;;;;;14.1;12.6;;;;;;;13.63;93.54688;95646.7;;;;
2022/08/30 05:28:14;;;;;;;14.1;12.6;;;;;;;13.63;93.54688;95646.7;;;;
2022/08/30 05:29:15;;;;;;;14.1;12.6;;;;;;;13.63;93.54688;95646.7;;;;
2022/08/30 05:30:15;;;;;;;14.1;12.6;;;;;;;13.63;93.54688;95646.7;;;;
2022/08/30 05:31:16;;;;;;;14.1;12.6;;;;;;;13.63;93.54688;95646.7;;;;
2022/08/30 05:32:19;;;;;;;14.1;12.6;;;;;;;13.63;93.54688;95646.7;;;;
2022/08/30 05:33:20;;;;;;;14.1;12.6;;;;;;;13.63;93.54688;95646.7;;;;
2022/08/30 05:34:20;;;;;;;14.1;12.6;;;;;;;13.63;93.54688;95646.7;;;;
2022/08/30 05:35:21;;;;;;;14.65;13.1;;;;;;;13.9;93.59375;95640.86;;;;
2022/08/30 05:36:22;;;;;;;14.65;13.1;;;;;;;13.9;93.59375;95640.86;;;;
2022/08/30 05:37:25;;;;;;;14.65;13.1;;;;;;;13.9;93.59375;95640.86;;;;
2022/08/30 05:38:26;;;;;;;14.65;13.1;;;;;;;13.9;93.59375;95640.86;;;;
2022/08/30 05:39:26;;;;;;;14.65;13.1;;;;;;;13.9;93.59375;95640.86;;;;
2022/08/30 05:40:27;;;;;;;14.65;13.1;;;;;;;13.9;93.59375;95640.86;;;;
2022/08/30 05:41:28;;;;;;;14.65;13.1;;;;;;;13.9;93.59375;95640.86;;;;
2022/08/30 05:42:29;;;;;;;14.65;13.1;;;;;;;13.9;93.59375;95640.86;;;;